Mijn Webcam Meer informatie Mijn Webcam


webcam facing north-east Meer informatie webcam facing north-east


waarschuwing voor winterse neerslag Meer informatie rain snow radar


Bezoek onze andere website:

Template documentation
and downloads

And another site


CBI



Sneeuw/IJzel/Bevriezing van: 18-01-2018 22:00 tot: 19-01-2018 08:59 waarschuwing voor: Sneeuw/IJzel/Bevriezing niveau: Geel info button
Kans op lokale gladheid door bevriezing van natte weggedeelten, vooral op bruggen en viaducten. Bovendien kan het ten gevolge van winterse buien plaatselijk glad worden.Kans op gladheid. Alle verkeersdeelnemers kunnen hinder ondervinden. Pas uw rijgedrag aan. Volg weerberichten en waarschuwingen.

METAR rapporten vliegvelden

   
EHGG - Groningen/Eelde
Gewijzigd: 18-01-2018 22:55
Licht bewolkt  
Licht bewolkt  
   Wind: WZW 1,5 m/s
Wind: WZW 1,5 m/s
Temperatuur: 1°C
Voelt als: -1°C
Dauwpunt: 0°C
Vochtigheid: 93%
Barometer: 1000 hPa
Bewolking: Licht bewolkt
Zicht: More then 10 km
Bewolking: Licht bewolkt 823 m
EHGG 182155Z AUTO 25003KT 9999 FEW027 01/00 Q1000 TEMPO 6000 SHRAGS SCT015CB
EHMA - Schiermonnikoog
Gewijzigd: 18-01-2018 22:55
Grotendeels bewolkt  
Grotendeels bewolkt  
   Wind: WNW 5,7 m/s
Wind: WNW 5,7 m/s
Temperatuur: 5°C
Voelt als: 1°C
Dauwpunt: 1°C
Vochtigheid: 76%
Barometer: 999 hPa
Bewolking: Grotendeels bewolkt
Zicht: More then 10 km
Bewolking: Licht bewolkt 457,2 m,
Gedeeltelijk bewolkt 883,9 m,
Grotendeels bewolkt 1066,8 m
EHMA 182155Z AUTO 29011KT 9999 FEW015CB SCT029 BKN035 05/01 Q0999 W///H///
EHMG - Terschelling
Gewijzigd: 18-01-2018 22:55
Gedeeltelijk bewolkt  
Gedeeltelijk bewolkt  
   Wind: Westen 7,2 m/s
Wind: Westen 7,2 m/s
Temperatuur: 6°C
Voelt als: 2°C
Dauwpunt: 2°C
Vochtigheid: 76%
Barometer: 999 hPa
Bewolking: Gedeeltelijk bewolkt
Zicht: More then 10 km
Bewolking: Gedeeltelijk bewolkt 518,2 m,
Gedeeltelijk bewolkt 609,6 m
EHMG 182155Z AUTO 27014KT 9999 SCT017 SCT020 06/02 Q0999 W///H///
EHVL - Vlieland
Gewijzigd: 18-01-2018 22:55
Bewolking  
Bewolking  
   Wind: Westen 7,2 m/s
Wind: Westen 7,2 m/s
Temperatuur: 5°C
Voelt als: 1°C
Dauwpunt: 2°C
Vochtigheid: 81%
Barometer: 999 hPa
Bewolking: Bewolking
Zicht: More then 10 km
Bewolking: Licht bewolkt 579,1 m,
Gedeeltelijk bewolkt 701 m,
Bewolking 5181,6 m
EHVL 182155Z AUTO 28014KT 9999 FEW019 SCT023 OVC170 05/02 Q0999 WHT
ETWM - Meppen, Germany
Gewijzigd: 18-01-2018 22:20
  
  
   Wind: WZW 3,1 m/s
Wind: WZW 3,1 m/s
Temperatuur: 2°C
Voelt als: -1°C
Dauwpunt: 0°C
Vochtigheid: 87%
Barometer: 1000 hPa
Zicht: More then 10 km
ETWM 182120Z AUTO 25006KT 9999 // ////// 02/00 Q1000 ///
 

Script ontwikkeld door  Saratoga-weather.org Aangepast voor de template door  Weerstation Leuven

U vindt ons ook hier:

Het Weer Aktueel

UK Metoffice

European Weather Network

WeatherCloud

Weather Underground

Benelux Weer Netwerk

AWEKAS

WeatherlinkIP

HAMweather, WeatherForYou, PWS Weather

Apparatuur in gebruik:

Weerstation
Davis VP2 Plus

Weerprogramma
Cumulus

Weercomputer
ASUS Eee Box B202

Webleverancier
Antagonist

Davis VP2 Plus

Cumulus

ASUS Eee Box B202

Antagonist